FMMI/TNR METAR and TAF weather

Enter ICAO airport designator
Station Type Date Time Source
FMMI METAR 2019/10/15 09:00 UTC NOAA

FMMI 150900Z VRB04KT 9999 BKN020TCU 27/15 Q1019 NOSIG


Station Type Date Time Source
FMMI Decoded METAR 2019/10/15 09:00 UTC NOAA

Antananarivo / Ivato, Madagascar (FMMI) 18-48S 047-29E 1276M
Oct 15, 2019 - 05:00 AM EDT / 2019.10.15 0900 UTC
Wind: Variable at 5 MPH (4 KT):0
Visibility: greater than 7 mile(s):0
Sky conditions: mostly cloudy
Weather: Towering cumulus clouds observed
Temperature: 80 F (27 C)
Dew Point: 59 F (15 C)
Relative Humidity: 47%
Pressure (altimeter): 30.09 in. Hg (1019 hPa)
ob: FMMI 150900Z VRB04KT 9999 BKN020TCU 27/15 Q1019 NOSIG
cycle: 9

Station Type Date Time Source
FMMI TAF 2019/10/15 06:30 UTC NOAA

TAF FMMI 150500Z 1506/1612 VRB03KT 9999 FEW017 BKN020
BECMG 1509/1512 SCT017CB BKN020 PROB40
TEMPO 1513/1521 VRB15G25KT 4000 TSRA
BECMG 1520/1523 FEW017 BKN020
BECMG 1603/1606 16013G23KT

Example: see airport list